首页
METAR-TAF:

METAR-TAF

机场 :

卡斯珀, 怀俄明州, 美国

纬度: 42-53-51N, 经度: 106-28-23W, 海拔: 1630米

当前天气观测

该预报发布于54分钟前的15:53 UTC
风速9节,风向西转西南
温度 22°C
湿度 50%
气压 1028 hPa
能見度: 16.1公里
天空无云

METAR: KCPR 211553Z 25009KT 10SM CLR 22/11 A3036 RMK AO2 SLP222 T02220106

时间: 10:47 (16:47 UTC)

预报

该预报发布于5小时和27分钟前的11:20 UTC
预报有效从21日的 12点(UTC)到 22日的 12点(UTC)
风速6节,风向多变
能見度: 10公里
少量云层高于10000英尺
从 21日的 1800点(UTC)
风速12节,风向,有时为20节阵风
能見度: 10公里
少量云层高于8000英尺
散云层高于15000英尺
几率 30%
从 21日的 20点(UTC)到 21日的 23点(UTC)
散云层高于6000英尺, 积雨云.
多云层高于10000英尺
雷暴, 小雨
从 22日的 0500点(UTC)
风速5节,风向多变
能見度: 10公里
少量云层高于8000英尺
散云层高于18000英尺

TAF: KCPR 211120Z 2112/2212 VRB06KT P6SM FEW100 FM211800 08012G20KT P6SM FEW080 SCT150 PROB30 2120/2123 -TSRA SCT060CB BKN100 FM220500 VRB05KT P6SM FEW080 SCT180

超过4000个机场的气象观测和天气预报(METAR&TAF报告)。

可查询的气象台以黄色和红色小点在地图上表示。

将鼠标移到小点上方,可查看气象台名称。

然后点击查看天气观测和预报。

如需切换地图:点击带黑十字的绿色按钮放大地图;点击带横线的绿色按钮缩小地图;或者点击绿色箭头查看邻近地区的地图。


METAR-TAF: